createdAt,value
2022-08-17T00:00:01.394Z,90.97
2022-08-17T00:02:29.051Z,91.14
2022-08-17T00:04:58.479Z,91.46
2022-08-17T00:07:25.560Z,91.25
2022-08-17T00:09:52.839Z,91.52
2022-08-17T00:12:42.111Z,91.61
2022-08-17T00:15:12.172Z,91.58
2022-08-17T00:17:42.194Z,91.75
2022-08-17T00:20:12.155Z,91.44
2022-08-17T00:22:39.260Z,91.32
2022-08-17T00:25:13.088Z,91.58
2022-08-17T00:27:40.230Z,91.92
2022-08-17T00:30:11.291Z,91.70
2022-08-17T00:33:15.572Z,91.94
2022-08-17T00:35:35.056Z,91.90
2022-08-17T00:38:05.107Z,92.61
2022-08-17T00:40:40.726Z,92.40
2022-08-17T00:43:30.146Z,92.48
2022-08-17T00:45:58.008Z,92.37
2022-08-17T00:48:30.475Z,92.10
2022-08-17T00:51:27.088Z,91.90
2022-08-17T00:54:00.185Z,91.94
2022-08-17T00:56:36.380Z,92.30
2022-08-17T00:59:09.065Z,92.16
2022-08-17T01:01:37.282Z,92.39
2022-08-17T01:04:05.359Z,92.67
2022-08-17T01:06:34.066Z,92.99
2022-08-17T01:09:02.230Z,93.03
2022-08-17T01:11:32.301Z,92.68
2022-08-17T01:13:59.756Z,93.07
2022-08-17T01:16:29.528Z,92.57
2022-08-17T01:19:07.954Z,92.63
2022-08-17T01:21:58.457Z,92.79
2022-08-17T01:24:37.173Z,92.90
2022-08-17T01:27:10.326Z,92.90
2022-08-17T01:29:41.269Z,92.47
2022-08-17T01:32:08.969Z,92.35
2022-08-17T01:34:43.691Z,92.31
2022-08-17T01:37:18.747Z,92.43
2022-08-17T01:39:52.671Z,92.67
2022-08-17T01:42:37.104Z,92.37
2022-08-17T01:45:12.885Z,92.68
2022-08-17T01:47:42.126Z,92.71
2022-08-17T01:50:17.332Z,92.73
2022-08-17T01:52:49.453Z,92.78
2022-08-17T01:55:24.570Z,92.74
2022-08-17T01:57:54.814Z,92.95
2022-08-17T02:00:22.106Z,92.96
2022-08-17T02:02:49.260Z,92.56
2022-08-17T02:05:18.864Z,92.78
2022-08-17T02:07:59.500Z,92.14
2022-08-17T02:10:34.028Z,92.57
2022-08-17T02:13:03.655Z,92.67
2022-08-17T02:15:32.112Z,92.29
2022-08-17T02:17:59.686Z,92.25
2022-08-17T02:20:41.951Z,92.54
2022-08-17T02:23:12.966Z,92.41
2022-08-17T02:25:43.508Z,92.38
2022-08-17T02:28:14.775Z,92.44
2022-08-17T02:31:01.332Z,92.84
2022-08-17T02:33:42.611Z,92.55
2022-08-17T02:36:12.774Z,92.46
2022-08-17T02:38:41.210Z,92.49
2022-08-17T02:41:09.373Z,92.63
2022-08-17T02:43:36.869Z,92.32
2022-08-17T02:46:04.250Z,92.73
2022-08-17T02:48:32.032Z,92.51
2022-08-17T02:51:01.244Z,92.79
2022-08-17T02:53:29.762Z,92.80
2022-08-17T02:56:06.539Z,92.48
2022-08-17T02:58:34.975Z,92.78
2022-08-17T03:01:06.497Z,92.71
2022-08-17T03:03:34.298Z,92.35
2022-08-17T03:06:03.917Z,92.94
2022-08-17T03:08:31.009Z,92.79
2022-08-17T03:10:58.253Z,93.01
2022-08-17T03:13:27.538Z,92.74
2022-08-17T03:15:54.599Z,92.59
2022-08-17T03:18:26.072Z,92.49
2022-08-17T03:20:56.119Z,93.09
2022-08-17T03:23:25.451Z,93.30
2022-08-17T03:25:54.627Z,92.75
2022-08-17T03:28:22.964Z,92.85
2022-08-17T03:30:51.368Z,92.94
2022-08-17T03:33:20.645Z,93.15
2022-08-17T03:35:50.109Z,92.72
2022-08-17T03:38:18.005Z,92.98
2022-08-17T03:40:57.713Z,92.94
2022-08-17T03:43:31.753Z,92.38
2022-08-17T03:46:34.203Z,92.22
2022-08-17T03:49:26.476Z,92.04
2022-08-17T03:52:14.028Z,92.25
2022-08-17T03:55:00.299Z,91.86
2022-08-17T03:57:27.974Z,91.73
2022-08-17T03:59:55.937Z,92.12
2022-08-17T04:02:30.687Z,91.65
2022-08-17T04:04:58.742Z,91.67
2022-08-17T04:07:29.399Z,91.37
2022-08-17T04:09:58.283Z,91.39
2022-08-17T04:12:31.097Z,91.14
2022-08-17T04:15:01.012Z,91.17
2022-08-17T04:17:34.900Z,91.19
2022-08-17T04:20:02.099Z,90.49
2022-08-17T04:22:32.896Z,90.77
2022-08-17T04:25:04.978Z,90.67
2022-08-17T04:27:35.742Z,90.80
2022-08-17T04:30:07.321Z,90.88
2022-08-17T04:33:04.769Z,90.61
2022-08-17T04:35:44.048Z,91.20
2022-08-17T04:38:15.851Z,90.64
2022-08-17T04:41:02.372Z,90.54
2022-08-17T04:43:33.066Z,90.55
2022-08-17T04:46:03.111Z,89.46
2022-08-17T04:48:43.225Z,89.52
2022-08-17T04:51:17.005Z,89.27
2022-08-17T04:53:53.963Z,88.96
2022-08-17T04:56:23.218Z,87.73
2022-08-17T04:58:53.823Z,87.47
2022-08-17T05:01:36.691Z,87.68
2022-08-17T05:04:33.257Z,87.34
2022-08-17T05:06:55.974Z,86.87
2022-08-17T05:09:23.382Z,86.84
2022-08-17T05:11:51.701Z,87.28
2022-08-17T05:14:21.331Z,87.40
2022-08-17T05:17:00.994Z,87.39
2022-08-17T05:19:30.614Z,87.03
2022-08-17T05:21:57.650Z,86.85
2022-08-17T05:24:38.734Z,86.50
2022-08-17T05:27:10.611Z,86.48
2022-08-17T05:29:46.549Z,85.83
2022-08-17T05:32:38.580Z,84.94
2022-08-17T05:35:02.537Z,83.70
2022-08-17T05:37:29.620Z,82.76
2022-08-17T05:39:56.797Z,82.18
2022-08-17T05:42:24.480Z,81.33
2022-08-17T05:44:51.604Z,80.49
2022-08-17T05:47:19.484Z,79.90
2022-08-17T05:49:49.082Z,78.95
2022-08-17T05:52:23.858Z,78.83
2022-08-17T05:54:54.020Z,78.42
2022-08-17T05:57:56.098Z,77.96
2022-08-17T06:00:30.575Z,77.78
2022-08-17T06:03:37.294Z,77.86
2022-08-17T06:06:25.302Z,78.12
2022-08-17T06:09:22.813Z,78.44
2022-08-17T06:12:05.054Z,78.70
2022-08-17T06:15:05.114Z,79.52
2022-08-17T06:17:34.105Z,79.87
2022-08-17T06:20:14.606Z,79.77
2022-08-17T06:22:52.366Z,79.79
2022-08-17T06:25:36.836Z,79.14
2022-08-17T06:28:13.758Z,79.01
2022-08-17T06:30:59.238Z,78.49
2022-08-17T06:33:36.607Z,78.09
2022-08-17T06:36:16.657Z,77.88
2022-08-17T06:39:10.677Z,78.01
2022-08-17T06:43:02.928Z,76.33
2022-08-17T06:45:10.547Z,74.33
2022-08-17T06:47:48.017Z,73.18
2022-08-17T06:50:40.789Z,72.12
2022-08-17T06:53:30.641Z,69.22
2022-08-17T06:56:10.389Z,68.66
2022-08-17T06:58:48.459Z,69.06
2022-08-17T07:01:25.207Z,67.70
2022-08-17T07:03:55.926Z,67.62
2022-08-17T07:06:28.515Z,67.36
2022-08-17T07:09:03.732Z,68.13
2022-08-17T07:11:34.387Z,67.92
2022-08-17T07:14:37.756Z,68.25
2022-08-17T07:17:15.566Z,68.16
2022-08-17T07:19:46.231Z,66.95
2022-08-17T07:22:55.237Z,66.19
2022-08-17T07:25:38.448Z,64.96
2022-08-17T07:28:07.881Z,64.65
2022-08-17T07:30:57.093Z,64.57
2022-08-17T07:33:28.122Z,63.58
2022-08-17T07:36:01.506Z,63.43
2022-08-17T07:38:54.262Z,63.17
2022-08-17T07:41:23.789Z,62.63
2022-08-17T07:43:56.676Z,61.28
2022-08-17T07:46:46.851Z,60.85
2022-08-17T07:49:13.912Z,59.68
2022-08-17T07:51:53.455Z,60.31
2022-08-17T07:54:27.362Z,60.26
2022-08-17T07:56:56.416Z,60.70
2022-08-17T07:59:28.653Z,61.28
2022-08-17T08:02:06.204Z,61.31
2022-08-17T08:05:08.904Z,61.62
2022-08-17T08:07:51.267Z,61.21
2022-08-17T08:10:36.680Z,61.57
2022-08-17T08:13:25.501Z,60.96
2022-08-17T08:15:57.028Z,61.17
2022-08-17T08:18:53.997Z,58.77
2022-08-17T08:22:06.971Z,59.91
2022-08-17T08:24:48.587Z,59.95
2022-08-17T08:27:30.935Z,59.58
2022-08-17T08:30:22.164Z,59.56
2022-08-17T08:33:12.416Z,54.83
2022-08-17T08:37:12.700Z,51.50
2022-08-17T08:39:58.604Z,47.98
2022-08-17T08:42:48.852Z,47.84
2022-08-17T08:45:21.999Z,47.35
2022-08-17T08:48:45.842Z,48.61
2022-08-17T08:51:30.164Z,49.72
2022-08-17T08:54:26.226Z,49.20
2022-08-17T08:57:34.507Z,50.27
2022-08-17T09:00:26.281Z,48.35
2022-08-17T09:03:17.611Z,46.38
2022-08-17T09:06:37.744Z,48.61
2022-08-17T09:09:15.250Z,49.62
2022-08-17T09:12:01.411Z,51.14
2022-08-17T09:14:51.975Z,51.50
2022-08-17T09:17:32.788Z,51.55
2022-08-17T09:20:28.088Z,52.50
2022-08-17T09:23:07.350Z,52.25
2022-08-17T09:25:51.794Z,55.12
2022-08-17T09:28:25.690Z,56.09
2022-08-17T09:31:06.966Z,57.73
2022-08-17T09:33:44.698Z,57.60
2022-08-17T09:36:17.119Z,57.23
2022-08-17T09:42:49.593Z,56.32
2022-08-17T09:45:34.915Z,55.98
2022-08-17T09:48:31.160Z,56.57
2022-08-17T09:51:10.547Z,56.97
2022-08-17T09:53:39.252Z,57.15
2022-08-17T09:56:45.529Z,58.41
2022-08-17T09:59:27.916Z,60.52
2022-08-17T10:02:40.752Z,62.68
2022-08-17T10:08:31.185Z,61.67
2022-08-17T10:11:08.840Z,57.32
2022-08-17T10:13:53.168Z,54.18
2022-08-17T10:16:47.939Z,47.60
2022-08-17T10:19:53.318Z,46.68
2022-08-17T10:23:03.687Z,43.36
2022-08-17T10:25:55.759Z,44.64
2022-08-17T10:28:32.108Z,48.02
2022-08-17T10:31:33.864Z,51.48
2022-08-17T10:34:03.443Z,53.53
2022-08-17T10:36:39.250Z,56.68
2022-08-17T10:39:12.713Z,58.71
2022-08-17T10:41:47.321Z,61.02
2022-08-17T10:44:40.456Z,61.46
2022-08-17T10:47:11.814Z,61.14
2022-08-17T10:49:57.201Z,61.21
2022-08-17T10:52:26.537Z,61.39
2022-08-17T10:54:58.513Z,60.38
2022-08-17T10:57:39.378Z,60.60
2022-08-17T11:00:16.153Z,61.13
2022-08-17T11:02:57.643Z,63.76
2022-08-17T11:05:52.379Z,64.21
2022-08-17T11:08:42.500Z,64.04
2022-08-17T11:11:10.795Z,65.38
2022-08-17T11:14:17.552Z,66.15
2022-08-17T11:16:56.219Z,66.38
2022-08-17T11:19:32.480Z,67.38
2022-08-17T11:22:40.633Z,67.93
2022-08-17T11:25:21.144Z,67.50
2022-08-17T11:27:53.919Z,67.10
2022-08-17T11:30:43.506Z,66.48
2022-08-17T11:33:30.442Z,66.38
2022-08-17T11:36:29.524Z,66.38
2022-08-17T11:39:07.728Z,67.32
2022-08-17T11:42:10.380Z,67.41
2022-08-17T11:45:03.900Z,67.79
2022-08-17T11:48:26.171Z,67.68
2022-08-17T11:51:17.845Z,66.33
2022-08-17T11:53:45.931Z,65.91
2022-08-17T11:56:41.292Z,67.25
2022-08-17T11:59:33.618Z,67.36
2022-08-17T12:02:29.936Z,66.88
2022-08-17T12:05:29.517Z,67.57
2022-08-17T12:08:18.894Z,68.45
2022-08-17T12:10:54.441Z,72.49
2022-08-17T12:13:23.900Z,75.05
2022-08-17T12:15:58.703Z,78.41
2022-08-17T12:18:32.195Z,79.36
2022-08-17T12:21:57.899Z,78.93
2022-08-17T12:24:46.296Z,78.02
2022-08-17T12:27:46.098Z,78.92
2022-08-17T12:30:20.546Z,77.71
2022-08-17T12:32:48.786Z,77.33
2022-08-17T12:35:48.326Z,73.45
2022-08-17T12:38:32.080Z,73.09
2022-08-17T12:41:21.803Z,73.38
2022-08-17T12:44:12.797Z,73.61
2022-08-17T12:46:59.307Z,73.92
2022-08-17T12:49:36.161Z,71.23
2022-08-17T12:52:09.143Z,70.63
2022-08-17T12:54:45.544Z,67.45
2022-08-17T12:57:23.653Z,66.76
2022-08-17T12:59:55.401Z,68.18
2022-08-17T13:02:29.002Z,68.71
2022-08-17T13:04:59.234Z,67.89
2022-08-17T13:07:36.843Z,68.28
2022-08-17T13:10:04.423Z,66.37
2022-08-17T13:12:35.153Z,65.69
2022-08-17T13:15:02.277Z,66.82
2022-08-17T13:17:35.810Z,67.70
2022-08-17T13:20:05.830Z,67.78
2022-08-17T13:22:33.855Z,67.80
2022-08-17T13:25:09.454Z,68.85
2022-08-17T13:27:42.909Z,69.87
2022-08-17T13:30:12.287Z,71.51
2022-08-17T13:32:44.303Z,72.18
2022-08-17T13:35:39.903Z,73.31
2022-08-17T13:38:12.735Z,74.38
2022-08-17T13:40:53.245Z,74.85
2022-08-17T13:43:48.526Z,75.12
2022-08-17T13:46:21.696Z,76.14
2022-08-17T13:49:20.719Z,76.78
2022-08-17T13:51:50.251Z,77.17
2022-08-17T13:54:31.070Z,78.46
2022-08-17T13:57:02.111Z,77.78
2022-08-17T13:59:54.193Z,75.97
2022-08-17T14:02:27.223Z,74.76
2022-08-17T14:04:56.220Z,75.63
2022-08-17T14:07:27.780Z,76.53
2022-08-17T14:10:02.500Z,77.00
2022-08-17T14:12:33.722Z,76.86
2022-08-17T14:15:02.221Z,75.89
2022-08-17T14:17:36.304Z,75.45
2022-08-17T14:20:09.846Z,75.37
2022-08-17T14:22:43.434Z,75.24
2022-08-17T14:25:14.297Z,76.02
2022-08-17T14:27:52.156Z,77.25
2022-08-17T14:30:23.800Z,76.84
2022-08-17T14:32:52.235Z,76.21
2022-08-17T14:35:22.166Z,76.77
2022-08-17T14:37:49.807Z,76.60
2022-08-17T14:40:20.991Z,76.47
2022-08-17T14:42:48.369Z,77.27
2022-08-17T14:45:30.471Z,77.05
2022-08-17T14:48:04.331Z,75.67
2022-08-17T14:50:31.820Z,75.99
2022-08-17T14:52:59.277Z,76.36
2022-08-17T14:55:33.473Z,76.00
2022-08-17T14:58:00.674Z,74.83
2022-08-17T15:00:28.747Z,74.42
2022-08-17T15:02:58.544Z,74.91
2022-08-17T15:05:31.755Z,75.22
2022-08-17T15:08:01.215Z,74.67
2022-08-17T15:10:30.509Z,75.52
2022-08-17T15:12:58.148Z,75.21
2022-08-17T15:15:30.292Z,75.21
2022-08-17T15:17:58.120Z,75.19
2022-08-17T15:20:28.424Z,75.09
2022-08-17T15:23:07.083Z,73.92
2022-08-17T15:25:34.482Z,73.76
2022-08-17T15:28:02.508Z,73.04
2022-08-17T15:30:31.519Z,73.06
2022-08-17T15:32:59.572Z,73.39
2022-08-17T15:35:39.415Z,73.33
2022-08-17T15:38:12.408Z,72.96
2022-08-17T15:40:47.173Z,72.32
2022-08-17T15:43:27.934Z,72.08
2022-08-17T15:46:03.571Z,71.36
2022-08-17T15:48:42.076Z,71.62
2022-08-17T15:51:22.664Z,72.25
2022-08-17T15:53:57.118Z,72.40
2022-08-17T15:56:40.189Z,72.86
2022-08-17T15:59:07.262Z,73.31
2022-08-17T16:01:42.253Z,73.02
2022-08-17T16:04:30.294Z,72.17
2022-08-17T16:06:59.224Z,71.86
2022-08-17T16:09:26.293Z,71.30
2022-08-17T16:11:58.277Z,70.96
2022-08-17T16:14:40.930Z,70.91
2022-08-17T16:17:38.888Z,71.35
2022-08-17T16:19:57.551Z,71.95
2022-08-17T16:22:44.036Z,74.28
2022-08-17T16:25:17.512Z,76.84
2022-08-17T16:27:45.084Z,77.73
2022-08-17T16:30:17.666Z,78.38
2022-08-17T16:32:45.595Z,78.56
2022-08-17T16:35:17.371Z,79.22
2022-08-17T16:37:45.816Z,79.75
2022-08-17T16:40:15.884Z,79.78
2022-08-17T16:42:45.432Z,81.14
2022-08-17T16:45:18.018Z,81.80
2022-08-17T16:47:45.892Z,82.31
2022-08-17T16:53:17.999Z,83.04
2022-08-17T16:55:52.481Z,83.51
2022-08-17T16:58:23.867Z,84.08
2022-08-17T17:00:51.854Z,84.24
2022-08-17T17:03:21.780Z,84.24
2022-08-17T17:06:13.789Z,83.75
2022-08-17T17:08:44.689Z,84.17
2022-08-17T17:11:29.209Z,85.52
2022-08-17T17:14:04.631Z,85.64
2022-08-17T17:16:52.762Z,85.30
2022-08-17T17:19:35.644Z,83.89
2022-08-17T17:22:15.441Z,83.58
2022-08-17T17:25:05.108Z,84.05
2022-08-17T17:28:15.233Z,84.81
2022-08-17T17:31:02.341Z,85.25
2022-08-17T17:33:56.463Z,85.57
2022-08-17T17:36:54.428Z,85.99
2022-08-17T17:39:45.609Z,85.73
2022-08-17T17:42:24.069Z,85.65
2022-08-17T17:45:19.009Z,86.47
2022-08-17T17:47:51.832Z,86.65
2022-08-17T17:50:23.653Z,86.37
2022-08-17T17:53:05.540Z,85.99
2022-08-17T17:58:36.966Z,85.69
2022-08-17T18:01:26.715Z,85.11
2022-08-17T18:04:20.289Z,85.38
2022-08-17T18:07:00.746Z,85.14
2022-08-17T18:10:01.014Z,84.74
2022-08-17T18:13:01.929Z,84.57
2022-08-17T18:15:53.299Z,83.63
2022-08-17T18:18:45.132Z,82.61
2022-08-17T18:21:23.374Z,82.26
2022-08-17T18:24:19.878Z,80.92
2022-08-17T18:27:08.235Z,78.97
2022-08-17T18:29:49.109Z,78.04
2022-08-17T18:32:46.753Z,77.41
2022-08-17T18:35:14.482Z,77.02
2022-08-17T18:37:56.743Z,77.09
2022-08-17T18:40:37.719Z,76.35
2022-08-17T18:43:05.461Z,75.94
2022-08-17T18:45:53.346Z,75.92
2022-08-17T18:49:02.629Z,76.39
2022-08-17T18:51:41.045Z,76.54
2022-08-17T18:54:25.395Z,75.70
2022-08-17T18:57:00.290Z,75.96
2022-08-17T18:59:48.375Z,76.40
2022-08-17T19:02:45.719Z,76.19
2022-08-17T19:05:42.430Z,76.15
2022-08-17T19:08:28.560Z,76.19
2022-08-17T19:11:13.176Z,76.22
2022-08-17T19:13:49.278Z,77.24
2022-08-17T19:16:53.315Z,77.02
2022-08-17T19:19:30.738Z,78.10
2022-08-17T19:22:28.687Z,78.84
2022-08-17T19:25:17.357Z,79.80
2022-08-17T19:28:15.321Z,80.34
2022-08-17T19:30:54.749Z,80.64
2022-08-17T19:33:26.132Z,81.35
2022-08-17T19:36:08.153Z,81.13
2022-08-17T19:39:19.853Z,81.58
2022-08-17T19:41:54.423Z,81.07
2022-08-17T19:44:40.082Z,81.26
2022-08-17T19:47:53.112Z,81.34
2022-08-17T19:50:16.745Z,81.22
2022-08-17T19:53:09.843Z,81.60
2022-08-17T19:55:37.045Z,82.46
2022-08-17T19:58:30.320Z,82.35
2022-08-17T20:00:57.683Z,82.67
2022-08-17T20:03:37.740Z,82.52
2022-08-17T20:06:14.261Z,82.83
2022-08-17T20:09:14.310Z,82.82
2022-08-17T20:11:49.153Z,83.06
2022-08-17T20:14:23.971Z,83.09
2022-08-17T20:16:52.512Z,83.52
2022-08-17T20:19:27.279Z,83.46
2022-08-17T20:22:00.432Z,83.81
2022-08-17T20:24:35.041Z,84.01
2022-08-17T20:27:32.104Z,83.76
2022-08-17T20:30:12.130Z,83.16
2022-08-17T20:32:49.650Z,83.34
2022-08-17T20:35:17.525Z,83.38
2022-08-17T20:37:59.936Z,83.23
2022-08-17T20:40:30.865Z,83.34
2022-08-17T20:43:35.812Z,84.16
2022-08-17T20:46:51.539Z,84.31
2022-08-17T20:49:40.203Z,84.33
2022-08-17T20:52:10.824Z,84.58
2022-08-17T20:55:00.028Z,84.47
2022-08-17T20:57:33.222Z,84.78
2022-08-17T21:00:32.948Z,85.15
2022-08-17T21:03:27.236Z,85.10
2022-08-17T21:06:17.092Z,84.99
2022-08-17T21:08:58.010Z,85.43
2022-08-17T21:11:56.961Z,85.50
2022-08-17T21:14:46.106Z,85.62
2022-08-17T21:17:32.155Z,85.82
2022-08-17T21:20:11.804Z,86.05
2022-08-17T21:23:01.722Z,86.47
2022-08-17T21:26:02.849Z,87.26
2022-08-17T21:29:00.929Z,87.29
2022-08-17T21:31:35.590Z,87.03
2022-08-17T21:34:15.531Z,87.45
2022-08-17T21:36:44.945Z,87.74
2022-08-17T21:39:30.593Z,87.73
2022-08-17T21:42:04.702Z,87.49
2022-08-17T21:44:37.572Z,87.73
2022-08-17T21:47:24.763Z,87.90
2022-08-17T21:49:56.647Z,87.69
2022-08-17T21:52:27.874Z,87.94
2022-08-17T21:55:00.830Z,87.97
2022-08-17T21:57:30.431Z,88.18
2022-08-17T22:00:01.533Z,88.55
2022-08-17T22:02:37.467Z,88.47
2022-08-17T22:05:09.536Z,88.47
2022-08-17T22:07:53.087Z,88.59
2022-08-17T22:10:32.388Z,88.26
2022-08-17T22:13:16.772Z,88.55
2022-08-17T22:15:47.773Z,87.95
2022-08-17T22:18:26.942Z,87.72
2022-08-17T22:21:01.741Z,87.71
2022-08-17T22:23:52.939Z,87.42
2022-08-17T22:26:25.469Z,87.68
2022-08-17T22:28:59.342Z,87.88
2022-08-17T22:31:28.897Z,88.23
2022-08-17T22:34:01.826Z,88.75
2022-08-17T22:36:29.511Z,88.75
2022-08-17T22:39:02.699Z,88.67
2022-08-17T22:41:48.403Z,88.81
2022-08-17T22:44:29.685Z,89.35
2022-08-17T22:47:19.161Z,89.41
2022-08-17T22:49:53.889Z,89.41
2022-08-17T22:52:56.941Z,89.59
2022-08-17T22:55:43.950Z,89.91
2022-08-17T22:58:37.314Z,89.73
2022-08-17T23:01:28.519Z,89.56
2022-08-17T23:04:02.952Z,89.52
2022-08-17T23:06:35.316Z,89.83
2022-08-17T23:09:06.307Z,89.50
2022-08-17T23:11:49.076Z,89.89
2022-08-17T23:14:19.957Z,89.73
2022-08-17T23:16:50.384Z,89.72
2022-08-17T23:19:21.481Z,90.03
2022-08-17T23:21:51.100Z,89.91
2022-08-17T23:24:41.836Z,90.32
2022-08-17T23:27:09.517Z,90.97
2022-08-17T23:29:41.462Z,91.08
2022-08-17T23:32:15.914Z,90.89
2022-08-17T23:34:44.706Z,90.44
2022-08-17T23:37:12.374Z,90.54
2022-08-17T23:39:39.995Z,90.41
2022-08-17T23:42:11.195Z,90.82
2022-08-17T23:44:40.160Z,91.22
2022-08-17T23:47:07.954Z,91.09
2022-08-17T23:49:36.404Z,91.03
2022-08-17T23:52:06.962Z,91.21
2022-08-17T23:54:46.626Z,91.03
2022-08-17T23:57:16.820Z,90.69
2022-08-17T23:59:44.777Z,90.70
